sensor_id;sensor_type;location;lat;lon;timestamp;pressure;altitude;pressure_sealevel;temperature;humidity
79048;BME280;68680;50.764;6.120;2023-04-03T00:02:16;100620.31;;;1.80;78.56
79048;BME280;68680;50.764;6.120;2023-04-03T00:04:42;100615.31;;;1.77;78.93
79048;BME280;68680;50.764;6.120;2023-04-03T00:07:07;100622.13;;;1.79;78.90
79048;BME280;68680;50.764;6.120;2023-04-03T00:09:33;100621.53;;;1.76;79.13
79048;BME280;68680;50.764;6.120;2023-04-03T00:11:59;100621.97;;;1.71;78.69
79048;BME280;68680;50.764;6.120;2023-04-03T00:14:24;100626.97;;;1.74;77.52
79048;BME280;68680;50.764;6.120;2023-04-03T00:16:51;100626.25;;;1.72;77.98
79048;BME280;68680;50.764;6.120;2023-04-03T00:19:17;100625.31;;;1.73;78.08
79048;BME280;68680;50.764;6.120;2023-04-03T00:21:43;100620.16;;;1.81;78.59
79048;BME280;68680;50.764;6.120;2023-04-03T00:24:08;100631.66;;;1.80;77.55
79048;BME280;68680;50.764;6.120;2023-04-03T00:26:34;100626.13;;;1.83;81.56
79048;BME280;68680;50.764;6.120;2023-04-03T00:28:59;100630.00;;;1.79;80.27
79048;BME280;68680;50.764;6.120;2023-04-03T00:31:25;100631.94;;;1.77;80.22
79048;BME280;68680;50.764;6.120;2023-04-03T00:33:52;100633.47;;;1.80;77.26
79048;BME280;68680;50.764;6.120;2023-04-03T00:36:18;100631.66;;;1.80;78.27
79048;BME280;68680;50.764;6.120;2023-04-03T00:38:43;100622.78;;;1.81;78.49
79048;BME280;68680;50.764;6.120;2023-04-03T00:41:09;100624.19;;;1.76;78.29
79048;BME280;68680;50.764;6.120;2023-04-03T00:43:35;100627.34;;;1.70;79.28
79048;BME280;68680;50.764;6.120;2023-04-03T00:46:01;100626.13;;;1.74;81.04
79048;BME280;68680;50.764;6.120;2023-04-03T00:48:29;100623.34;;;1.75;81.20
79048;BME280;68680;50.764;6.120;2023-04-03T00:50:57;100621.72;;;1.74;80.90
79048;BME280;68680;50.764;6.120;2023-04-03T00:53:27;100623.34;;;1.75;78.44
79048;BME280;68680;50.764;6.120;2023-04-03T00:55:55;100621.13;;;1.71;78.88
79048;BME280;68680;50.764;6.120;2023-04-03T00:58:26;100627.22;;;1.71;80.61
79048;BME280;68680;50.764;6.120;2023-04-03T01:00:55;100625.56;;;1.70;78.86
79048;BME280;68680;50.764;6.120;2023-04-03T01:03:23;100629.44;;;1.66;78.25
79048;BME280;68680;50.764;6.120;2023-04-03T01:05:48;100627.91;;;1.63;81.19
79048;BME280;68680;50.764;6.120;2023-04-03T01:08:16;100624.31;;;1.55;83.24
79048;BME280;68680;50.764;6.120;2023-04-03T01:10:42;100629.03;;;1.51;84.43
79048;BME280;68680;50.764;6.120;2023-04-03T01:13:19;100625.00;;;1.38;83.30
79048;BME280;68680;50.764;6.120;2023-04-03T01:15:45;100627.19;;;1.33;84.12
79048;BME280;68680;50.764;6.120;2023-04-03T01:18:11;100626.63;;;1.29;85.21
79048;BME280;68680;50.764;6.120;2023-04-03T01:23:44;100626.44;;;1.11;85.48
79048;BME280;68680;50.764;6.120;2023-04-03T01:26:13;100632.22;;;1.05;85.00
79048;BME280;68680;50.764;6.120;2023-04-03T01:28:39;100629.88;;;0.93;84.17
79048;BME280;68680;50.764;6.120;2023-04-03T01:31:12;100629.03;;;0.92;85.24
79048;BME280;68680;50.764;6.120;2023-04-03T01:33:40;100637.75;;;0.93;86.03
79048;BME280;68680;50.764;6.120;2023-04-03T01:36:07;100628.84;;;0.84;84.85
79048;BME280;68680;50.764;6.120;2023-04-03T01:38:33;100633.41;;;0.82;85.85
79048;BME280;68680;50.764;6.120;2023-04-03T01:40:59;100636.19;;;0.80;86.76
79048;BME280;68680;50.764;6.120;2023-04-03T01:43:24;100636.44;;;0.77;86.79
79048;BME280;68680;50.764;6.120;2023-04-03T01:45:50;100628.53;;;0.68;87.02
79048;BME280;68680;50.764;6.120;2023-04-03T01:48:16;100638.31;;;0.66;86.71
79048;BME280;68680;50.764;6.120;2023-04-03T01:50:43;100637.22;;;0.68;88.06
79048;BME280;68680;50.764;6.120;2023-04-03T01:53:10;100642.16;;;0.62;87.27
79048;BME280;68680;50.764;6.120;2023-04-03T01:55:36;100642.25;;;0.51;86.60
79048;BME280;68680;50.764;6.120;2023-04-03T01:58:01;100633.53;;;0.50;88.19
79048;BME280;68680;50.764;6.120;2023-04-03T02:00:27;100636.03;;;0.52;89.04
79048;BME280;68680;50.764;6.120;2023-04-03T02:02:53;100632.41;;;0.43;87.86
79048;BME280;68680;50.764;6.120;2023-04-03T02:05:18;100638.44;;;0.34;87.17
79048;BME280;68680;50.764;6.120;2023-04-03T02:07:45;100634.72;;;0.36;88.93
79048;BME280;68680;50.764;6.120;2023-04-03T02:10:11;100645.41;;;0.24;87.91
79048;BME280;68680;50.764;6.120;2023-04-03T02:12:37;100642.31;;;0.19;88.67
79048;BME280;68680;50.764;6.120;2023-04-03T02:15:04;100641.66;;;0.17;88.90
79048;BME280;68680;50.764;6.120;2023-04-03T02:17:30;100643.34;;;0.07;88.69
79048;BME280;68680;50.764;6.120;2023-04-03T02:19:55;100643.50;;;0.05;89.23
79048;BME280;68680;50.764;6.120;2023-04-03T02:22:21;100650.38;;;0.06;89.74
79048;BME280;68680;50.764;6.120;2023-04-03T02:24:48;100648.09;;;-0.08;89.24
79048;BME280;68680;50.764;6.120;2023-04-03T02:27:13;100650.94;;;-0.11;89.75
79048;BME280;68680;50.764;6.120;2023-04-03T02:29:39;100647.47;;;-0.12;90.21
79048;BME280;68680;50.764;6.120;2023-04-03T02:32:05;100651.59;;;-0.19;90.06
79048;BME280;68680;50.764;6.120;2023-04-03T02:34:30;100654.34;;;-0.20;90.56
79048;BME280;68680;50.764;6.120;2023-04-03T02:36:56;100657.41;;;-0.15;90.75
79048;BME280;68680;50.764;6.120;2023-04-03T02:39:22;100654.41;;;-0.11;90.56
79048;BME280;68680;50.764;6.120;2023-04-03T02:41:49;100659.56;;;-0.20;90.15
79048;BME280;68680;50.764;6.120;2023-04-03T02:44:14;100651.38;;;-0.27;90.18
79048;BME280;68680;50.764;6.120;2023-04-03T02:46:40;100652.31;;;-0.28;90.22
79048;BME280;68680;50.764;6.120;2023-04-03T02:49:06;100663.66;;;-0.27;90.14
79048;BME280;68680;50.764;6.120;2023-04-03T02:51:32;100653.03;;;-0.26;89.84
79048;BME280;68680;50.764;6.120;2023-04-03T02:53:57;100659.50;;;-0.30;90.28
79048;BME280;68680;50.764;6.120;2023-04-03T02:56:23;100650.34;;;-0.35;89.96
79048;BME280;68680;50.764;6.120;2023-04-03T02:58:50;100649.38;;;-0.34;91.15
79048;BME280;68680;50.764;6.120;2023-04-03T03:01:16;100652.47;;;-0.41;91.23
79048;BME280;68680;50.764;6.120;2023-04-03T03:03:41;100651.06;;;-0.45;91.59
79048;BME280;68680;50.764;6.120;2023-04-03T03:06:09;100657.75;;;-0.52;91.57
79048;BME280;68680;50.764;6.120;2023-04-03T03:08:35;100653.97;;;-0.48;92.22
79048;BME280;68680;50.764;6.120;2023-04-03T03:11:01;100647.50;;;-0.44;92.75
79048;BME280;68680;50.764;6.120;2023-04-03T03:13:27;100655.59;;;-0.47;92.83
79048;BME280;68680;50.764;6.120;2023-04-03T03:15:54;100648.34;;;-0.43;93.02
79048;BME280;68680;50.764;6.120;2023-04-03T03:18:20;100645.84;;;-0.45;93.36
79048;BME280;68680;50.764;6.120;2023-04-03T03:20:45;100651.91;;;-0.44;93.12
79048;BME280;68680;50.764;6.120;2023-04-03T03:23:11;100650.09;;;-0.32;92.36
79048;BME280;68680;50.764;6.120;2023-04-03T03:25:37;100651.06;;;-0.45;91.68
79048;BME280;68680;50.764;6.120;2023-04-03T03:28:04;100651.56;;;-0.51;91.70
79048;BME280;68680;50.764;6.120;2023-04-03T03:30:29;100654.00;;;-0.59;91.19
79048;BME280;68680;50.764;6.120;2023-04-03T03:32:56;100657.19;;;-0.55;91.78
79048;BME280;68680;50.764;6.120;2023-04-03T03:35:22;100655.78;;;-0.59;91.42
79048;BME280;68680;50.764;6.120;2023-04-03T03:37:48;100656.72;;;-0.60;91.59
79048;BME280;68680;50.764;6.120;2023-04-03T03:40:13;100659.47;;;-0.62;91.78
79048;BME280;68680;50.764;6.120;2023-04-03T03:42:39;100661.97;;;-0.60;91.30
79048;BME280;68680;50.764;6.120;2023-04-03T03:45:06;100665.91;;;-0.66;91.55
79048;BME280;68680;50.764;6.120;2023-04-03T03:47:32;100661.75;;;-0.68;92.05
79048;BME280;68680;50.764;6.120;2023-04-03T03:49:58;100668.19;;;-0.72;92.17
79048;BME280;68680;50.764;6.120;2023-04-03T03:52:24;100663.06;;;-0.74;91.79
79048;BME280;68680;50.764;6.120;2023-04-03T03:54:50;100663.06;;;-0.74;91.64
79048;BME280;68680;50.764;6.120;2023-04-03T03:57:15;100667.34;;;-0.73;92.08
79048;BME280;68680;50.764;6.120;2023-04-03T03:59:41;100668.66;;;-0.78;91.98
79048;BME280;68680;50.764;6.120;2023-04-03T04:02:07;100664.50;;;-0.81;91.68
79048;BME280;68680;50.764;6.120;2023-04-03T04:04:32;100661.75;;;-0.79;91.67
79048;BME280;68680;50.764;6.120;2023-04-03T04:06:59;100667.09;;;-0.81;91.42
79048;BME280;68680;50.764;6.120;2023-04-03T04:09:25;100668.41;;;-0.75;91.46
79048;BME280;68680;50.764;6.120;2023-04-03T04:11:51;100670.06;;;-0.63;92.34
79048;BME280;68680;50.764;6.120;2023-04-03T04:14:17;100667.69;;;-0.66;92.82
79048;BME280;68680;50.764;6.120;2023-04-03T04:16:42;100675.09;;;-0.71;92.63
79048;BME280;68680;50.764;6.120;2023-04-03T04:19:08;100676.91;;;-0.83;91.81
79048;BME280;68680;50.764;6.120;2023-04-03T04:21:34;100664.88;;;-0.86;91.50
79048;BME280;68680;50.764;6.120;2023-04-03T04:24:01;100667.13;;;-0.92;91.21
79048;BME280;68680;50.764;6.120;2023-04-03T04:26:27;100670.47;;;-0.90;91.43
79048;BME280;68680;50.764;6.120;2023-04-03T04:28:52;100671.31;;;-0.90;91.31
79048;BME280;68680;50.764;6.120;2023-04-03T04:31:18;100677.59;;;-0.81;91.91
79048;BME280;68680;50.764;6.120;2023-04-03T04:33:43;100677.59;;;-0.81;92.29
79048;BME280;68680;50.764;6.120;2023-04-03T04:36:09;100677.50;;;-0.91;91.06
79048;BME280;68680;50.764;6.120;2023-04-03T04:38:35;100685.47;;;-0.92;91.13
79048;BME280;68680;50.764;6.120;2023-04-03T04:41:02;100687.25;;;-1.04;90.12
79048;BME280;68680;50.764;6.120;2023-04-03T04:43:27;100683.56;;;-1.01;90.86
79048;BME280;68680;50.764;6.120;2023-04-03T04:46:01;100687.59;;;-1.08;90.41
79048;BME280;68680;50.764;6.120;2023-04-03T04:48:26;100693.69;;;-1.08;91.10
79048;BME280;68680;50.764;6.120;2023-04-03T04:50:52;100697.50;;;-1.12;90.78
79048;BME280;68680;50.764;6.120;2023-04-03T04:53:18;100696.19;;;-1.06;91.42
79048;BME280;68680;50.764;6.120;2023-04-03T04:55:43;100693.56;;;-1.06;92.09
79048;BME280;68680;50.764;6.120;2023-04-03T04:58:10;100696.06;;;-1.05;92.34
79048;BME280;68680;50.764;6.120;2023-04-03T05:00:36;100696.78;;;-1.03;92.16
79048;BME280;68680;50.764;6.120;2023-04-03T05:03:01;100692.63;;;-1.05;91.73
79048;BME280;68680;50.764;6.120;2023-04-03T05:05:27;100692.75;;;-1.07;90.64
79048;BME280;68680;50.764;6.120;2023-04-03T05:07:53;100694.75;;;-1.10;90.51
79048;BME280;68680;50.764;6.120;2023-04-03T05:10:19;100689.41;;;-1.09;91.04
79048;BME280;68680;50.764;6.120;2023-04-03T05:12:44;100697.03;;;-1.06;91.08
79048;BME280;68680;50.764;6.120;2023-04-03T05:15:11;100701.44;;;-1.06;91.14
79048;BME280;68680;50.764;6.120;2023-04-03T05:17:37;100706.78;;;-0.97;92.01
79048;BME280;68680;50.764;6.120;2023-04-03T05:20:03;100712.72;;;-1.06;91.65
79048;BME280;68680;50.764;6.120;2023-04-03T05:22:29;100709.75;;;-1.12;90.53
79048;BME280;68680;50.764;6.120;2023-04-03T05:24:54;100713.19;;;-1.23;90.05
79048;BME280;68680;50.764;6.120;2023-04-03T05:27:20;100714.84;;;-1.22;90.42
79048;BME280;68680;50.764;6.120;2023-04-03T05:29:46;100713.44;;;-1.15;91.10
79048;BME280;68680;50.764;6.120;2023-04-03T05:32:13;100716.78;;;-1.02;91.83
79048;BME280;68680;50.764;6.120;2023-04-03T05:34:39;100719.75;;;-1.06;91.42
79048;BME280;68680;50.764;6.120;2023-04-03T05:37:04;100718.19;;;-1.09;90.44
79048;BME280;68680;50.764;6.120;2023-04-03T05:39:30;100718.31;;;-1.10;90.35
79048;BME280;68680;50.764;6.120;2023-04-03T05:41:56;100718.06;;;-1.07;90.56
79048;BME280;68680;50.764;6.120;2023-04-03T05:44:21;100718.81;;;-1.05;90.68
79048;BME280;68680;50.764;6.120;2023-04-03T05:46:47;100721.16;;;-1.02;90.74
79048;BME280;68680;50.764;6.120;2023-04-03T05:49:14;100723.56;;;-0.99;91.16
79048;BME280;68680;50.764;6.120;2023-04-03T05:51:39;100728.66;;;-0.87;91.75
79048;BME280;68680;50.764;6.120;2023-04-03T05:54:11;100733.31;;;-0.79;91.92
79048;BME280;68680;50.764;6.120;2023-04-03T05:56:37;100732.00;;;-0.73;91.97
79048;BME280;68680;50.764;6.120;2023-04-03T05:59:03;100737.13;;;-0.72;91.11
79048;BME280;68680;50.764;6.120;2023-04-03T06:01:29;100739.94;;;-0.64;90.72
79048;BME280;68680;50.764;6.120;2023-04-03T06:03:55;100737.56;;;-0.56;90.55
79048;BME280;68680;50.764;6.120;2023-04-03T06:06:22;100745.06;;;-0.51;90.59
79048;BME280;68680;50.764;6.120;2023-04-03T06:08:48;100742.06;;;-0.47;90.92
79048;BME280;68680;50.764;6.120;2023-04-03T06:11:13;100744.94;;;-0.38;90.61
79048;BME280;68680;50.764;6.120;2023-04-03T06:13:39;100743.16;;;-0.38;90.19
79048;BME280;68680;50.764;6.120;2023-04-03T06:16:05;100744.31;;;-0.31;90.40
79048;BME280;68680;50.764;6.120;2023-04-03T06:18:31;100742.53;;;-0.30;90.07
79048;BME280;68680;50.764;6.120;2023-04-03T06:20:56;100743.94;;;-0.26;90.35
79048;BME280;68680;50.764;6.120;2023-04-03T06:23:23;100745.63;;;-0.25;90.33
79048;BME280;68680;50.764;6.120;2023-04-03T06:25:49;100746.09;;;-0.20;91.08
79048;BME280;68680;50.764;6.120;2023-04-03T06:28:15;100747.63;;;-0.18;90.87
79048;BME280;68680;50.764;6.120;2023-04-03T06:30:40;100744.97;;;-0.07;90.69
79048;BME280;68680;50.764;6.120;2023-04-03T06:33:06;100735.13;;;0.07;90.04
79048;BME280;68680;50.764;6.120;2023-04-03T06:35:31;100742.34;;;0.25;88.59
79048;BME280;68680;50.764;6.120;2023-04-03T06:37:57;100746.19;;;0.42;87.24
79048;BME280;68680;50.764;6.120;2023-04-03T06:40:25;100744.09;;;0.57;85.62
79048;BME280;68680;50.764;6.120;2023-04-03T06:42:50;100743.06;;;0.69;85.46
79048;BME280;68680;50.764;6.120;2023-04-03T06:45:16;100744.41;;;0.84;84.61
79048;BME280;68680;50.764;6.120;2023-04-03T06:47:42;100742.28;;;0.99;82.45
79048;BME280;68680;50.764;6.120;2023-04-03T06:50:09;100741.50;;;1.17;81.57
79048;BME280;68680;50.764;6.120;2023-04-03T06:52:35;100752.63;;;1.31;83.05
79048;BME280;68680;50.764;6.120;2023-04-03T06:55:01;100754.22;;;1.52;81.61
79048;BME280;68680;50.764;6.120;2023-04-03T06:57:28;100745.25;;;1.64;80.52
79048;BME280;68680;50.764;6.120;2023-04-03T06:59:53;100743.47;;;1.65;79.88
79048;BME280;68680;50.764;6.120;2023-04-03T07:02:19;100747.78;;;1.66;79.06
79048;BME280;68680;50.764;6.120;2023-04-03T07:04:45;100757.03;;;1.70;78.73
79048;BME280;68680;50.764;6.120;2023-04-03T07:07:10;100750.81;;;1.71;77.98
79048;BME280;68680;50.764;6.120;2023-04-03T07:09:36;100747.66;;;1.77;78.57
79048;BME280;68680;50.764;6.120;2023-04-03T07:12:02;100748.66;;;1.86;78.72
79048;BME280;68680;50.764;6.120;2023-04-03T07:14:29;100750.28;;;1.87;77.66
79048;BME280;68680;50.764;6.120;2023-04-03T07:16:54;100761.25;;;1.92;76.63
79048;BME280;68680;50.764;6.120;2023-04-03T07:19:20;100760.44;;;1.91;77.09
79048;BME280;68680;50.764;6.120;2023-04-03T07:21:45;100759.34;;;2.03;75.98
79048;BME280;68680;50.764;6.120;2023-04-03T07:24:11;100761.25;;;2.11;76.40
79048;BME280;68680;50.764;6.120;2023-04-03T07:26:37;100756.97;;;2.29;75.60
79048;BME280;68680;50.764;6.120;2023-04-03T07:29:02;100756.00;;;2.40;75.63
79048;BME280;68680;50.764;6.120;2023-04-03T07:31:29;100759.03;;;2.45;74.77
79048;BME280;68680;50.764;6.120;2023-04-03T07:33:55;100757.09;;;2.47;75.20
79048;BME280;68680;50.764;6.120;2023-04-03T07:36:22;100754.34;;;2.48;74.41
79048;BME280;68680;50.764;6.120;2023-04-03T07:38:48;100751.03;;;2.56;74.68
79048;BME280;68680;50.764;6.120;2023-04-03T07:41:15;100759.00;;;2.74;73.87
79048;BME280;68680;50.764;6.120;2023-04-03T07:43:41;100753.72;;;2.74;73.97
79048;BME280;68680;50.764;6.120;2023-04-03T07:46:07;100754.00;;;2.80;73.84
79048;BME280;68680;50.764;6.120;2023-04-03T07:48:34;100758.03;;;2.84;74.01
79048;BME280;68680;50.764;6.120;2023-04-03T07:51:00;100751.09;;;2.83;72.79
79048;BME280;68680;50.764;6.120;2023-04-03T07:53:26;100758.13;;;2.93;73.79
79048;BME280;68680;50.764;6.120;2023-04-03T07:55:52;100764.22;;;3.03;72.56
79048;BME280;68680;50.764;6.120;2023-04-03T07:58:18;100760.47;;;3.05;73.38
79048;BME280;68680;50.764;6.120;2023-04-03T08:00:43;100769.59;;;3.11;71.66
79048;BME280;68680;50.764;6.120;2023-04-03T08:03:11;100758.03;;;3.21;72.00
79048;BME280;68680;50.764;6.120;2023-04-03T08:05:39;100763.56;;;3.28;70.42
79048;BME280;68680;50.764;6.120;2023-04-03T08:08:06;100767.16;;;3.37;70.16
79048;BME280;68680;50.764;6.120;2023-04-03T08:10:32;100769.22;;;3.43;68.57
79048;BME280;68680;50.764;6.120;2023-04-03T08:12:57;100767.69;;;3.40;70.63
79048;BME280;68680;50.764;6.120;2023-04-03T08:15:23;100770.44;;;3.48;68.65
79048;BME280;68680;50.764;6.120;2023-04-03T08:17:49;100769.28;;;3.60;68.05
79048;BME280;68680;50.764;6.120;2023-04-03T08:20:15;100766.31;;;3.63;67.73
79048;BME280;68680;50.764;6.120;2023-04-03T08:22:42;100763.50;;;3.75;69.31
79048;BME280;68680;50.764;6.120;2023-04-03T08:25:08;100773.00;;;3.85;67.65
79048;BME280;68680;50.764;6.120;2023-04-03T08:27:34;100768.63;;;3.76;67.33
79048;BME280;68680;50.764;6.120;2023-04-03T08:30:00;100764.03;;;3.78;67.04
79048;BME280;68680;50.764;6.120;2023-04-03T08:32:26;100768.16;;;3.81;67.25
79048;BME280;68680;50.764;6.120;2023-04-03T08:34:51;100773.56;;;3.89;65.98
79048;BME280;68680;50.764;6.120;2023-04-03T08:37:17;100773.16;;;3.84;66.12
79048;BME280;68680;50.764;6.120;2023-04-03T08:39:44;100771.88;;;3.88;66.28
79048;BME280;68680;50.764;6.120;2023-04-03T08:42:16;100775.28;;;3.98;67.74
79048;BME280;68680;50.764;6.120;2023-04-03T08:44:47;100776.81;;;4.00;68.44
79048;BME280;68680;50.764;6.120;2023-04-03T08:47:21;100780.91;;;4.12;67.41
79048;BME280;68680;50.764;6.120;2023-04-03T08:49:51;100781.78;;;4.03;65.73
79048;BME280;68680;50.764;6.120;2023-04-03T08:52:20;100779.53;;;4.08;67.10
79048;BME280;68680;50.764;6.120;2023-04-03T08:54:54;100783.47;;;4.22;64.93
79048;BME280;68680;50.764;6.120;2023-04-03T08:57:26;100785.13;;;4.41;65.80
79048;BME280;68680;50.764;6.120;2023-04-03T08:59:53;100783.91;;;4.71;65.21
79048;BME280;68680;50.764;6.120;2023-04-03T09:02:25;100780.44;;;4.96;66.19
79048;BME280;68680;50.764;6.120;2023-04-03T09:04:54;100788.22;;;4.97;65.88
79048;BME280;68680;50.764;6.120;2023-04-03T09:07:24;100785.22;;;5.18;66.78
79048;BME280;68680;50.764;6.120;2023-04-03T09:09:55;100786.50;;;4.88;64.95
79048;BME280;68680;50.764;6.120;2023-04-03T09:12:25;100784.13;;;5.03;66.35
79048;BME280;68680;50.764;6.120;2023-04-03T09:14:57;100791.28;;;5.11;64.50
79048;BME280;68680;50.764;6.120;2023-04-03T09:17:35;100791.63;;;5.16;64.18
79048;BME280;68680;50.764;6.120;2023-04-03T09:20:11;100789.19;;;4.96;64.34
79048;BME280;68680;50.764;6.120;2023-04-03T09:22:42;100789.31;;;4.87;64.37
79048;BME280;68680;50.764;6.120;2023-04-03T09:25:13;100788.84;;;4.91;64.23
79048;BME280;68680;50.764;6.120;2023-04-03T09:27:40;100786.88;;;4.93;64.60
79048;BME280;68680;50.764;6.120;2023-04-03T09:30:12;100788.31;;;4.88;65.52
79048;BME280;68680;50.764;6.120;2023-04-03T09:32:38;100780.72;;;5.19;63.23
79048;BME280;68680;50.764;6.120;2023-04-03T09:35:10;100783.16;;;5.38;62.17
79048;BME280;68680;50.764;6.120;2023-04-03T09:37:42;100777.66;;;5.31;61.65
79048;BME280;68680;50.764;6.120;2023-04-03T09:40:29;100778.56;;;5.14;61.73
79048;BME280;68680;50.764;6.120;2023-04-03T09:42:57;100768.19;;;5.21;63.42
79048;BME280;68680;50.764;6.120;2023-04-03T09:45:25;100772.34;;;5.23;63.16
79048;BME280;68680;50.764;6.120;2023-04-03T09:48:04;100774.31;;;5.21;62.00
79048;BME280;68680;50.764;6.120;2023-04-03T09:50:30;100777.44;;;5.17;61.84
79048;BME280;68680;50.764;6.120;2023-04-03T09:52:56;100771.25;;;5.08;60.21
79048;BME280;68680;50.764;6.120;2023-04-03T09:55:23;100765.00;;;5.09;61.86
79048;BME280;68680;50.764;6.120;2023-04-03T09:57:50;100762.66;;;5.06;61.14
79048;BME280;68680;50.764;6.120;2023-04-03T10:00:21;100762.50;;;5.08;61.95
79048;BME280;68680;50.764;6.120;2023-04-03T10:02:51;100772.91;;;5.09;62.28
79048;BME280;68680;50.764;6.120;2023-04-03T10:05:30;100764.28;;;4.99;62.58
79048;BME280;68680;50.764;6.120;2023-04-03T10:08:11;100767.13;;;5.06;61.61
79048;BME280;68680;50.764;6.120;2023-04-03T10:10:46;100763.06;;;5.19;61.31
79048;BME280;68680;50.764;6.120;2023-04-03T10:13:15;100758.78;;;5.18;59.83
79048;BME280;68680;50.764;6.120;2023-04-03T10:15:43;100755.09;;;5.11;60.34
79048;BME280;68680;50.764;6.120;2023-04-03T10:18:26;100757.75;;;5.11;60.88
79048;BME280;68680;50.764;6.120;2023-04-03T10:20:57;100744.53;;;5.11;59.29
79048;BME280;68680;50.764;6.120;2023-04-03T10:23:28;100759.56;;;5.19;58.39
79048;BME280;68680;50.764;6.120;2023-04-03T10:26:04;100752.81;;;5.24;56.79
79048;BME280;68680;50.764;6.120;2023-04-03T10:28:43;100750.56;;;5.29;58.87
79048;BME280;68680;50.764;6.120;2023-04-03T10:31:15;100752.41;;;5.37;58.75
79048;BME280;68680;50.764;6.120;2023-04-03T10:33:54;100748.13;;;5.44;59.16
79048;BME280;68680;50.764;6.120;2023-04-03T10:36:28;100741.38;;;5.50;58.08
79048;BME280;68680;50.764;6.120;2023-04-03T10:38:59;100742.25;;;5.66;55.50
79048;BME280;68680;50.764;6.120;2023-04-03T10:41:34;100740.16;;;5.70;57.77
79048;BME280;68680;50.764;6.120;2023-04-03T10:44:14;100739.13;;;5.71;56.66
79048;BME280;68680;50.764;6.120;2023-04-03T10:46:45;100735.03;;;5.85;56.60
79048;BME280;68680;50.764;6.120;2023-04-03T10:49:22;100732.28;;;5.94;54.10
79048;BME280;68680;50.764;6.120;2023-04-03T10:51:56;100734.63;;;6.13;53.42
79048;BME280;68680;50.764;6.120;2023-04-03T10:54:26;100734.31;;;6.16;54.99
79048;BME280;68680;50.764;6.120;2023-04-03T10:57:00;100735.94;;;6.17;52.67
79048;BME280;68680;50.764;6.120;2023-04-03T10:59:31;100732.66;;;6.15;54.15
79048;BME280;68680;50.764;6.120;2023-04-03T11:02:00;100742.25;;;6.08;53.03
79048;BME280;68680;50.764;6.120;2023-04-03T11:04:29;100745.88;;;6.07;54.24
79048;BME280;68680;50.764;6.120;2023-04-03T11:07:00;100736.22;;;5.82;53.25
79048;BME280;68680;50.764;6.120;2023-04-03T11:09:28;100727.94;;;5.85;53.05
79048;BME280;68680;50.764;6.120;2023-04-03T11:12:00;100734.28;;;5.92;54.55
79048;BME280;68680;50.764;6.120;2023-04-03T11:14:30;100727.34;;;6.07;52.24
79048;BME280;68680;50.764;6.120;2023-04-03T11:17:06;100725.22;;;6.11;52.47
79048;BME280;68680;50.764;6.120;2023-04-03T11:19:39;100718.09;;;6.19;51.33
79048;BME280;68680;50.764;6.120;2023-04-03T11:22:10;100699.56;;;6.28;52.23
79048;BME280;68680;50.764;6.120;2023-04-03T11:24:41;100697.88;;;6.43;52.11
79048;BME280;68680;50.764;6.120;2023-04-03T11:27:12;100708.47;;;6.59;51.18
79048;BME280;68680;50.764;6.120;2023-04-03T11:29:44;100711.31;;;6.57;51.28
79048;BME280;68680;50.764;6.120;2023-04-03T11:32:26;100700.53;;;6.51;51.12
79048;BME280;68680;50.764;6.120;2023-04-03T11:34:56;100701.69;;;6.48;51.26
79048;BME280;68680;50.764;6.120;2023-04-03T11:37:28;100702.84;;;6.30;52.27
79048;BME280;68680;50.764;6.120;2023-04-03T11:39:57;100704.50;;;6.47;47.90
79048;BME280;68680;50.764;6.120;2023-04-03T11:42:32;100690.78;;;6.51;49.54
79048;BME280;68680;50.764;6.120;2023-04-03T11:45:32;100690.59;;;6.53;49.80
79048;BME280;68680;50.764;6.120;2023-04-03T11:48:00;100684.59;;;6.75;50.51
79048;BME280;68680;50.764;6.120;2023-04-03T11:50:40;100685.56;;;6.82;49.64
79048;BME280;68680;50.764;6.120;2023-04-03T11:53:30;100689.50;;;7.03;49.01
79048;BME280;68680;50.764;6.120;2023-04-03T11:56:01;100684.41;;;6.93;46.64
79048;BME280;68680;50.764;6.120;2023-04-03T11:58:29;100683.19;;;7.04;45.82
79048;BME280;68680;50.764;6.120;2023-04-03T12:00:59;100682.06;;;6.98;44.63
79048;BME280;68680;50.764;6.120;2023-04-03T12:04:06;100675.25;;;7.04;47.22
79048;BME280;68680;50.764;6.120;2023-04-03T12:06:58;100671.16;;;7.32;48.03
79048;BME280;68680;50.764;6.120;2023-04-03T12:09:32;100666.28;;;7.43;48.44
79048;BME280;68680;50.764;6.120;2023-04-03T12:12:00;100653.81;;;7.75;45.66
79048;BME280;68680;50.764;6.120;2023-04-03T12:14:27;100654.75;;;8.05;46.77
79048;BME280;68680;50.764;6.120;2023-04-03T12:16:56;100654.28;;;8.24;48.91
79048;BME280;68680;50.764;6.120;2023-04-03T12:19:36;100651.78;;;8.22;45.55
79048;BME280;68680;50.764;6.120;2023-04-03T12:22:08;100650.88;;;8.53;44.99
79048;BME280;68680;50.764;6.120;2023-04-03T12:24:35;100654.72;;;8.50;43.40
79048;BME280;68680;50.764;6.120;2023-04-03T12:27:05;100646.41;;;8.97;44.39
79048;BME280;68680;50.764;6.120;2023-04-03T12:29:38;100644.88;;;9.54;42.07
79048;BME280;68680;50.764;6.120;2023-04-03T12:32:17;100647.69;;;10.09;41.10
79048;BME280;68680;50.764;6.120;2023-04-03T12:35:01;100661.66;;;10.11;39.03
79048;BME280;68680;50.764;6.120;2023-04-03T12:37:43;100643.19;;;10.31;37.50
79048;BME280;68680;50.764;6.120;2023-04-03T12:40:23;100645.59;;;10.47;35.22
79048;BME280;68680;50.764;6.120;2023-04-03T12:43:03;100635.31;;;11.20;34.74
79048;BME280;68680;50.764;6.120;2023-04-03T12:45:40;100635.28;;;11.06;34.89
79048;BME280;68680;50.764;6.120;2023-04-03T12:48:13;100631.25;;;11.84;36.06
79048;BME280;68680;50.764;6.120;2023-04-03T12:50:40;100634.88;;;11.64;34.19
79048;BME280;68680;50.764;6.120;2023-04-03T12:53:12;100629.19;;;11.80;34.14
79048;BME280;68680;50.764;6.120;2023-04-03T12:55:39;100640.34;;;12.23;35.39
79048;BME280;68680;50.764;6.120;2023-04-03T12:58:15;100631.88;;;12.52;34.48
79048;BME280;68680;50.764;6.120;2023-04-03T13:00:41;100614.41;;;12.43;33.69
79048;BME280;68680;50.764;6.120;2023-04-03T13:03:22;100620.50;;;12.76;33.47
79048;BME280;68680;50.764;6.120;2023-04-03T13:05:49;100619.38;;;13.10;32.86
79048;BME280;68680;50.764;6.120;2023-04-03T13:08:22;100611.84;;;13.45;32.91